This is the latest recevied weather packets stored in our database for station/object IU1OPQ-3. If no packets are shown the sender has not sent any weather packets the latest 10 day(s).
| Time | Temp. | Humidity | Pressure | Rain* | Wind** | Luminosity | Snow |
|---|---|---|---|---|---|---|---|
| 1777805101 | 20.56° C | 37% | 1019 hPa | 0 mm | - | - | - |
| 1777804201 | 18.89° C | 40% | 1019.1 hPa | 0 mm | - | - | - |
| 1777803301 | 19.44° C | 38% | 1018.9 hPa | 0 mm | - | - | - |
| 1777802400 | 18.89° C | 38% | 1019.2 hPa | 0 mm | - | - | - |
| 1777801500 | 18.33° C | 40% | 1019.6 hPa | 0 mm | - | - | - |
| 1777800600 | 17.22° C | 42% | 1019.4 hPa | 0 mm | - | - | - |
| 1777799700 | 16.67° C | 43% | 1019.7 hPa | 0 mm | - | - | - |
| 1777798801 | 16.67° C | 43% | 1019.3 hPa | 0 mm | - | - | - |
| 1777797901 | 16.67° C | 43% | 1019.5 hPa | 0 mm | - | - | - |
| 1777797001 | 16.67° C | 44% | 1019.3 hPa | 0 mm | - | - | - |
| 1777796101 | 16.67° C | 49% | 1019.3 hPa | 0 mm | - | - | - |
| 1777795201 | 16.67° C | 51% | 1019.2 hPa | 0 mm | - | - | - |
| 1777794301 | 16.67° C | 52% | 1019 hPa | 0 mm | - | - | - |
| 1777793401 | 16.67° C | 51% | 1019.1 hPa | 0 mm | - | - | - |
| 1777792501 | 17.22° C | 52% | 1019.2 hPa | 0 mm | - | - | - |
| 1777791601 | 15.56° C | 58% | 1019.2 hPa | 0 mm | - | - | - |
| 1777790701 | 15.56° C | 60% | 1019.3 hPa | 0 mm | - | - | - |
| 1777789800 | 14.44° C | 63% | 1019.5 hPa | 0 mm | - | - | - |
| 1777788900 | 15.56° C | 61% | 1019.4 hPa | 0 mm | - | - | - |
| 1777788001 | 14.44° C | 61% | 1019.2 hPa | 0 mm | - | - | - |
| 1777787100 | 14.44° C | 61% | 1019.2 hPa | 0 mm | - | - | - |
| 1777786201 | 14.44° C | 60% | 1019.1 hPa | 0 mm | - | - | - |
| 1777785301 | 14.44° C | 60% | 1019.2 hPa | 0 mm | - | - | - |
| 1777784401 | 13.89° C | 61% | 1018.9 hPa | 0 mm | - | - | - |
| 1777783500 | 13.89° C | 63% | 1019 hPa | 0 mm | - | - | - |
* Rain latest hour (hover to see other rain measurements)
** Current wind speed in m/s (hover to see current wind gust speed)